sensor_id;sensor_type;location;lat;lon;timestamp;P1;P2;P0
58740;PMS7003;44512;53.046;18.604;2023-05-07T00:04:53;22;19;12
58740;PMS7003;44512;53.046;18.604;2023-05-07T00:15:21;25;20;15
58740;PMS7003;44512;53.046;18.604;2023-05-07T00:25:50;25;21;15
58740;PMS7003;44512;53.046;18.604;2023-05-07T00:36:18;21;19;15
58740;PMS7003;44512;53.046;18.604;2023-05-07T00:46:47;20;18;14
58740;PMS7003;44512;53.046;18.604;2023-05-07T00:57:15;24;19;15
58740;PMS7003;44512;53.046;18.604;2023-05-07T01:07:44;26;21;15
58740;PMS7003;44512;53.046;18.604;2023-05-07T01:18:12;22;20;15
58740;PMS7003;44512;53.046;18.604;2023-05-07T01:28:40;22;21;15
58740;PMS7003;44512;53.046;18.604;2023-05-07T01:39:09;19;18;12
58740;PMS7003;44512;53.046;18.604;2023-05-07T01:49:37;21;19;16
58740;PMS7003;44512;53.046;18.604;2023-05-07T02:00:06;23;19;13
58740;PMS7003;44512;53.046;18.604;2023-05-07T02:10:34;25;19;15
58740;PMS7003;44512;53.046;18.604;2023-05-07T02:21:03;23;19;14
58740;PMS7003;44512;53.046;18.604;2023-05-07T02:31:32;21;20;14
58740;PMS7003;44512;53.046;18.604;2023-05-07T02:41:59;29;21;14
58740;PMS7003;44512;53.046;18.604;2023-05-07T02:52:28;15;15;11
58740;PMS7003;44512;53.046;18.604;2023-05-07T03:02:56;17;15;12
58740;PMS7003;44512;53.046;18.604;2023-05-07T03:13:25;22;18;13
58740;PMS7003;44512;53.046;18.604;2023-05-07T03:23:53;23;18;13
58740;PMS7003;44512;53.046;18.604;2023-05-07T03:34:22;20;18;14
58740;PMS7003;44512;53.046;18.604;2023-05-07T03:44:50;22;19;14
58740;PMS7003;44512;53.046;18.604;2023-05-07T03:55:18;22;18;14
58740;PMS7003;44512;53.046;18.604;2023-05-07T04:05:47;22;16;13
58740;PMS7003;44512;53.046;18.604;2023-05-07T04:16:15;26;18;13
58740;PMS7003;44512;53.046;18.604;2023-05-07T04:26:44;23;17;13
58740;PMS7003;44512;53.046;18.604;2023-05-07T04:37:13;17;14;10
58740;PMS7003;44512;53.046;18.604;2023-05-07T04:47:40;22;19;13
58740;PMS7003;44512;53.046;18.604;2023-05-07T04:58:09;23;19;14
58740;PMS7003;44512;53.046;18.604;2023-05-07T05:08:37;21;18;14
58740;PMS7003;44512;53.046;18.604;2023-05-07T05:19:06;16;15;11
58740;PMS7003;44512;53.046;18.604;2023-05-07T05:29:34;16;14;11
58740;PMS7003;44512;53.046;18.604;2023-05-07T05:40:03;17;13;10
58740;PMS7003;44512;53.046;18.604;2023-05-07T05:50:31;16;11;7
58740;PMS7003;44512;53.046;18.604;2023-05-07T06:00:59;13;11;8
58740;PMS7003;44512;53.046;18.604;2023-05-07T06:11:28;11;11;8
58740;PMS7003;44512;53.046;18.604;2023-05-07T06:21:56;18;14;10
58740;PMS7003;44512;53.046;18.604;2023-05-07T06:32:25;17;13;10
58740;PMS7003;44512;53.046;18.604;2023-05-07T06:42:53;20;13;9
58740;PMS7003;44512;53.046;18.604;2023-05-07T06:53:21;18;12;9
58740;PMS7003;44512;53.046;18.604;2023-05-07T07:03:50;14;12;10
58740;PMS7003;44512;53.046;18.604;2023-05-07T07:14:18;11;11;9
58740;PMS7003;44512;53.046;18.604;2023-05-07T07:24:46;13;13;9
58740;PMS7003;44512;53.046;18.604;2023-05-07T07:35:15;11;11;9
58740;PMS7003;44512;53.046;18.604;2023-05-07T07:45:43;9;9;7
58740;PMS7003;44512;53.046;18.604;2023-05-07T07:56:12;11;10;8
58740;PMS7003;44512;53.046;18.604;2023-05-07T08:06:40;8;8;6
58740;PMS7003;44512;53.046;18.604;2023-05-07T08:17:08;13;8;6
58740;PMS7003;44512;53.046;18.604;2023-05-07T08:27:37;8;7;5
58740;PMS7003;44512;53.046;18.604;2023-05-07T08:38:06;8;7;6
58740;PMS7003;44512;53.046;18.604;2023-05-07T08:48:34;5;5;3
58740;PMS7003;44512;53.046;18.604;2023-05-07T08:59:02;6;5;5
58740;PMS7003;44512;53.046;18.604;2023-05-07T09:09:32;6;5;4
58740;PMS7003;44512;53.046;18.604;2023-05-07T09:20:03;7;5;4
58740;PMS7003;44512;53.046;18.604;2023-05-07T09:30:30;9;4;3
58740;PMS7003;44512;53.046;18.604;2023-05-07T10:01:52;6;5;4
58740;PMS7003;44512;53.046;18.604;2023-05-07T10:12:21;5;5;4
58740;PMS7003;44512;53.046;18.604;2023-05-07T10:22:49;8;6;5
58740;PMS7003;44512;53.046;18.604;2023-05-07T10:33:18;5;4;3
58740;PMS7003;44512;53.046;18.604;2023-05-07T10:43:46;5;4;3
58740;PMS7003;44512;53.046;18.604;2023-05-07T11:04:42;6;3;3
58740;PMS7003;44512;53.046;18.604;2023-05-07T11:15:12;3;3;2
58740;PMS7003;44512;53.046;18.604;2023-05-07T11:25:39;5;3;3
58740;PMS7003;44512;53.046;18.604;2023-05-07T11:36:08;3;3;3
58740;PMS7003;44512;53.046;18.604;2023-05-07T11:46:36;3;3;2
58740;PMS7003;44512;53.046;18.604;2023-05-07T11:57:04;7;5;4
58740;PMS7003;44512;53.046;18.604;2023-05-07T12:07:33;4;3;3
58740;PMS7003;44512;53.046;18.604;2023-05-07T12:18:01;4;3;2
58740;PMS7003;44512;53.046;18.604;2023-05-07T12:28:36;3;3;2
58740;PMS7003;44512;53.046;18.604;2023-05-07T12:38:58;3;2;2
58740;PMS7003;44512;53.046;18.604;2023-05-07T12:49:26;4;3;2
58740;PMS7003;44512;53.046;18.604;2023-05-07T12:59:57;1;1;1
58740;PMS7003;44512;53.046;18.604;2023-05-07T13:10:23;2;2;1
58740;PMS7003;44512;53.046;18.604;2023-05-07T13:20:52;3;2;2
58740;PMS7003;44512;53.046;18.604;2023-05-07T13:31:20;5;4;3
58740;PMS7003;44512;53.046;18.604;2023-05-07T13:41:48;5;3;3
58740;PMS7003;44512;53.046;18.604;2023-05-07T13:52:17;7;5;4
58740;PMS7003;44512;53.046;18.604;2023-05-07T14:02:45;4;3;3
58740;PMS7003;44512;53.046;18.604;2023-05-07T14:13:13;2;2;2
58740;PMS7003;44512;53.046;18.604;2023-05-07T14:23:41;4;3;2
58740;PMS7003;44512;53.046;18.604;2023-05-07T14:34:10;2;2;2
58740;PMS7003;44512;53.046;18.604;2023-05-07T14:50:00;2;2;2
58740;PMS7003;44512;53.046;18.604;2023-05-07T15:00:28;2;2;1
58740;PMS7003;44512;53.046;18.604;2023-05-07T15:10:56;2;2;2
58740;PMS7003;44512;53.046;18.604;2023-05-07T15:21:24;2;2;2
58740;PMS7003;44512;53.046;18.604;2023-05-07T15:31:52;3;3;2
58740;PMS7003;44512;53.046;18.604;2023-05-07T15:42:21;3;2;2
58740;PMS7003;44512;53.046;18.604;2023-05-07T15:52:50;4;2;2
58740;PMS7003;44512;53.046;18.604;2023-05-07T16:03:17;2;2;2
58740;PMS7003;44512;53.046;18.604;2023-05-07T16:13:46;4;3;2
58740;PMS7003;44512;53.046;18.604;2023-05-07T16:24:14;3;2;2
58740;PMS7003;44512;53.046;18.604;2023-05-07T16:34:42;5;2;2
58740;PMS7003;44512;53.046;18.604;2023-05-07T16:45:11;4;3;2
58740;PMS7003;44512;53.046;18.604;2023-05-07T16:55:39;2;1;1
58740;PMS7003;44512;53.046;18.604;2023-05-07T17:06:08;3;2;1
58740;PMS7003;44512;53.046;18.604;2023-05-07T17:16:36;4;3;2
58740;PMS7003;44512;53.046;18.604;2023-05-07T17:27:04;5;5;3
58740;PMS7003;44512;53.046;18.604;2023-05-07T17:37:32;4;4;3
58740;PMS7003;44512;53.046;18.604;2023-05-07T17:48:01;5;5;4
58740;PMS7003;44512;53.046;18.604;2023-05-07T17:58:29;3;3;3
58740;PMS7003;44512;53.046;18.604;2023-05-07T18:08:58;7;4;3
58740;PMS7003;44512;53.046;18.604;2023-05-07T18:19:26;5;4;3
58740;PMS7003;44512;53.046;18.604;2023-05-07T18:29:54;10;8;6
58740;PMS7003;44512;53.046;18.604;2023-05-07T18:40:23;11;8;5
58740;PMS7003;44512;53.046;18.604;2023-05-07T18:50:51;7;6;4
58740;PMS7003;44512;53.046;18.604;2023-05-07T19:01:20;7;6;4
58740;PMS7003;44512;53.046;18.604;2023-05-07T19:11:48;6;4;3
58740;PMS7003;44512;53.046;18.604;2023-05-07T19:22:16;6;5;5
58740;PMS7003;44512;53.046;18.604;2023-05-07T19:32:44;7;6;5
58740;PMS7003;44512;53.046;18.604;2023-05-07T19:43:13;7;6;5
58740;PMS7003;44512;53.046;18.604;2023-05-07T19:53:41;10;9;7
58740;PMS7003;44512;53.046;18.604;2023-05-07T20:04:10;11;9;8
58740;PMS7003;44512;53.046;18.604;2023-05-07T20:14:38;9;8;7
58740;PMS7003;44512;53.046;18.604;2023-05-07T20:25:07;7;7;6
58740;PMS7003;44512;53.046;18.604;2023-05-07T20:35:35;5;3;1
58740;PMS7003;44512;53.046;18.604;2023-05-07T20:46:03;11;9;7
58740;PMS7003;44512;53.046;18.604;2023-05-07T20:56:31;10;9;7
58740;PMS7003;44512;53.046;18.604;2023-05-07T21:07:00;10;9;7
58740;PMS7003;44512;53.046;18.604;2023-05-07T21:17:29;9;7;5
58740;PMS7003;44512;53.046;18.604;2023-05-07T21:27:57;12;8;7
58740;PMS7003;44512;53.046;18.604;2023-05-07T21:38:25;9;8;7
58740;PMS7003;44512;53.046;18.604;2023-05-07T21:48:53;12;10;8
58740;PMS7003;44512;53.046;18.604;2023-05-07T21:59:22;10;9;8
58740;PMS7003;44512;53.046;18.604;2023-05-07T22:09:50;14;10;9
58740;PMS7003;44512;53.046;18.604;2023-05-07T22:20:19;11;10;8
58740;PMS7003;44512;53.046;18.604;2023-05-07T22:30:47;13;11;9
58740;PMS7003;44512;53.046;18.604;2023-05-07T22:41:15;16;14;11
58740;PMS7003;44512;53.046;18.604;2023-05-07T22:51:44;13;12;9
58740;PMS7003;44512;53.046;18.604;2023-05-07T23:02:12;14;13;10
58740;PMS7003;44512;53.046;18.604;2023-05-07T23:12:40;15;13;10
58740;PMS7003;44512;53.046;18.604;2023-05-07T23:23:09;18;13;11
58740;PMS7003;44512;53.046;18.604;2023-05-07T23:33:37;13;12;9
58740;PMS7003;44512;53.046;18.604;2023-05-07T23:44:06;16;15;12
58740;PMS7003;44512;53.046;18.604;2023-05-07T23:54:34;22;16;13
